Time;durP1;ratioP1;P1;durP2;ratioP2;P2;SDS_P1;SDS_P2;PMS_P1;PMS_P2;Temp;Humidity;BMP_temperature;BMP_pressure;BME280_temperature;BME280_humidity;BME280_pressure;Samples;Min_cycle;Max_cycle;Signal;HPM_P1;HPM_P2
2022/07/18 00:00:29;;;;;;;2.00;1.80;;;20.60;20.70;;;;;;10428261;28;20741;-72
2022/07/18 00:05:32;;;;;;;1.67;1.57;;;20.60;21.30;;;;;;10429791;28;20237;-71
2022/07/18 00:10:35;;;;;;;3.30;1.60;;;20.50;20.90;;;;;;10431378;28;20717;-72
2022/07/18 00:15:40;;;;;;;2.10;1.87;;;20.40;21.00;;;;;;10432154;28;20228;-71
2022/07/18 00:20:43;;;;;;;3.30;2.00;;;20.40;21.70;;;;;;10437085;28;20823;-71
2022/07/18 00:25:47;;;;;;;1.90;1.80;;;20.30;21.20;;;;;;10437904;28;20235;-71
2022/07/18 00:30:51;;;;;;;3.17;1.80;;;20.20;21.20;;;;;;10435137;28;20791;-71
2022/07/18 00:35:54;;;;;;;2.00;1.80;;;20.20;22.00;;;;;;10436740;28;20221;-71
2022/07/18 00:40:58;;;;;;;5.10;2.07;;;20.20;21.60;;;;;;10435089;28;20222;-71
2022/07/18 00:46:02;;;;;;;2.10;1.90;;;20.20;21.70;;;;;;10438558;28;20729;-71
2022/07/18 00:51:06;;;;;;;2.57;1.90;;;20.10;22.20;;;;;;10436129;28;20251;-71
2022/07/18 00:56:10;;;;;;;2.20;2.00;;;20.00;21.90;;;;;;10435168;28;20247;-71
2022/07/18 01:06:35;;;;;;;2.13;1.93;;;19.80;22.50;;;;;;10439214;28;20229;-72
2022/07/18 01:11:39;;;;;;;2.30;2.03;;;19.60;22.30;;;;;;10438605;28;20225;-71
2022/07/18 01:16:44;;;;;;;2.10;1.90;;;19.50;22.40;;;;;;10435064;28;20226;-71
2022/07/18 01:21:49;;;;;;;2.00;1.90;;;19.40;22.90;;;;;;10437240;28;20735;-71
2022/07/18 01:26:52;;;;;;;3.47;1.83;;;19.40;23.30;;;;;;10435104;28;20228;-71
2022/07/18 01:31:55;;;;;;;1.70;1.60;;;19.40;22.80;;;;;;10435357;28;20229;-71
2022/07/18 01:37:00;;;;;;;1.97;1.80;;;19.40;22.90;;;;;;10439543;28;20736;-71
2022/07/18 01:42:06;;;;;;;1.90;1.80;;;19.40;23.30;;;;;;10433849;28;20228;-72
2022/07/18 01:47:11;;;;;;;2.10;1.90;;;19.40;23.20;;;;;;10435359;28;20229;-71
2022/07/18 01:52:15;;;;;;;3.20;1.97;;;19.40;23.30;;;;;;10434602;28;20235;-72
2022/07/18 01:57:20;;;;;;;2.10;1.83;;;19.40;23.40;;;;;;10436053;28;20227;-71
2022/07/18 02:02:23;;;;;;;2.47;1.73;;;19.30;23.00;;;;;;10434154;28;20733;-71
2022/07/18 02:07:28;;;;;;;3.60;1.73;;;19.30;23.10;;;;;;10435333;28;20956;-71
2022/07/18 02:12:31;;;;;;;2.17;1.97;;;19.20;23.50;;;;;;10434210;28;20229;-71
2022/07/18 02:17:35;;;;;;;2.17;1.97;;;19.20;23.30;;;;;;10436453;28;20590;-71
2022/07/18 02:22:40;;;;;;;2.33;2.13;;;19.20;23.60;;;;;;10431387;28;21221;-72
2022/07/18 02:27:43;;;;;;;1.80;1.70;;;19.10;23.80;;;;;;10434544;28;20228;-71
2022/07/18 02:32:46;;;;;;;2.47;2.23;;;19.00;23.50;;;;;;10435074;28;20240;-71
2022/07/18 02:37:51;;;;;;;2.50;1.70;;;19.00;23.50;;;;;;10434222;28;20228;-73
2022/07/18 02:42:54;;;;;;;3.67;2.10;;;18.90;23.90;;;;;;10435538;28;20239;-71
2022/07/18 02:47:58;;;;;;;4.00;2.17;;;18.80;23.60;;;;;;10434913;28;20243;-72
2022/07/18 02:53:02;;;;;;;3.00;2.13;;;18.70;24.30;;;;;;10430090;28;20231;-71
2022/07/18 02:58:06;;;;;;;2.67;2.13;;;18.60;24.40;;;;;;10432538;28;20682;-71
2022/07/18 03:03:10;;;;;;;2.17;2.07;;;18.50;24.30;;;;;;10432051;28;21165;-71
2022/07/18 03:08:14;;;;;;;2.43;2.17;;;18.40;24.20;;;;;;10431249;28;20232;-71
2022/07/18 03:13:17;;;;;;;2.80;2.20;;;18.40;24.20;;;;;;10434306;28;20229;-71
2022/07/18 03:18:22;;;;;;;4.67;2.13;;;18.30;24.20;;;;;;10431826;28;20252;-71
2022/07/18 03:23:26;;;;;;;3.50;2.20;;;18.20;24.10;;;;;;10434800;28;20732;-71
2022/07/18 03:28:29;;;;;;;2.50;1.67;;;18.20;24.70;;;;;;10432277;28;20232;-71
2022/07/18 03:33:33;;;;;;;3.20;2.13;;;18.10;24.10;;;;;;10429505;28;20725;-71
2022/07/18 03:38:42;;;;;;;1.97;1.87;;;18.00;24.50;;;;;;10433808;28;20292;-71
2022/07/18 03:43:46;;;;;;;2.63;2.00;;;18.00;24.90;;;;;;10428276;28;20228;-71
2022/07/18 03:48:49;;;;;;;1.97;1.83;;;17.90;24.70;;;;;;10429594;28;20221;-71
2022/07/18 03:53:53;;;;;;;1.90;1.80;;;17.90;24.70;;;;;;10432319;28;20226;-71
2022/07/18 03:58:57;;;;;;;2.67;1.87;;;17.90;25.20;;;;;;10439628;28;20221;-71
2022/07/18 04:04:00;;;;;;;2.10;1.90;;;17.90;24.80;;;;;;10436934;28;20236;-71
2022/07/18 04:09:05;;;;;;;5.40;2.20;;;17.90;25.00;;;;;;10438116;28;20847;-71
2022/07/18 04:14:08;;;;;;;4.30;2.10;;;18.00;25.70;;;;;;10438928;28;20728;-71
2022/07/18 04:19:11;;;;;;;5.33;2.63;;;18.00;25.20;;;;;;10437659;28;20224;-71
2022/07/18 04:24:16;;;;;;;4.40;2.37;;;18.00;25.60;;;;;;10438430;28;20228;-71
2022/07/18 04:29:19;;;;;;;5.47;2.30;;;17.90;25.60;;;;;;10435821;28;20229;-71
2022/07/18 04:34:22;;;;;;;2.90;2.43;;;17.90;25.50;;;;;;10438361;28;20609;-71
2022/07/18 04:39:26;;;;;;;5.67;2.70;;;17.90;25.80;;;;;;10440538;28;20233;-72
2022/07/18 04:44:30;;;;;;;3.77;2.60;;;17.90;26.40;;;;;;10434000;28;20224;-70
2022/07/18 04:49:33;;;;;;;3.47;2.47;;;17.90;26.10;;;;;;10431486;28;20592;-71
2022/07/18 04:54:38;;;;;;;3.97;2.80;;;17.90;26.10;;;;;;10426910;28;21116;-70
2022/07/18 04:59:42;;;;;;;4.57;2.83;;;17.90;26.60;;;;;;10430778;28;20749;-70
2022/07/18 05:04:45;;;;;;;5.63;2.73;;;17.90;26.50;;;;;;10429538;28;20907;-69
2022/07/18 05:09:50;;;;;;;6.50;3.17;;;17.80;26.60;;;;;;10429779;28;20233;-70
2022/07/18 05:14:53;;;;;;;3.13;2.83;;;17.90;27.10;;;;;;10429418;28;20243;-70
2022/07/18 05:20:06;;;;;;;8.03;3.20;;;18.00;27.10;;;;;;10420668;28;20241;-70
2022/07/18 05:25:11;;;;;;;4.17;2.87;;;18.20;27.50;;;;;;10425165;28;20765;-70
2022/07/18 05:30:15;;;;;;;3.17;2.80;;;18.30;27.80;;;;;;10427656;28;20754;-70
2022/07/18 05:35:18;;;;;;;4.57;2.60;;;18.40;27.20;;;;;;10427006;28;20236;-70
2022/07/18 05:40:23;;;;;;;3.17;2.50;;;18.60;27.30;;;;;;10428272;28;20243;-70
2022/07/18 05:45:27;;;;;;;3.10;2.60;;;18.70;27.60;;;;;;10427428;28;20598;-70
2022/07/18 05:50:30;;;;;;;3.33;2.43;;;18.90;27.10;;;;;;10429796;28;20235;-70
2022/07/18 05:55:35;;;;;;;2.73;2.53;;;19.10;27.00;;;;;;10423620;28;20230;-70
2022/07/18 06:00:39;;;;;;;3.40;2.40;;;19.30;27.30;;;;;;10429042;28;20228;-70
2022/07/18 06:05:42;;;;;;;7.10;2.57;;;19.40;27.20;;;;;;10423842;28;20979;-70
2022/07/18 06:10:49;;;;;;;4.73;2.40;;;19.70;27.20;;;;;;10428699;28;20229;-70
2022/07/18 06:15:52;;;;;;;2.90;2.37;;;19.90;27.60;;;;;;10429859;28;20229;-72
2022/07/18 06:20:56;;;;;;;3.57;2.23;;;20.10;27.20;;;;;;10428164;28;20224;-71
2022/07/18 06:26:00;;;;;;;2.80;2.60;;;20.40;27.30;;;;;;10409511;28;20221;-71
2022/07/18 06:31:04;;;;;;;2.53;2.40;;;20.60;27.30;;;;;;10417264;28;20976;-70
2022/07/18 06:36:08;;;;;;;5.40;2.57;;;20.90;26.90;;;;;;10417743;28;20232;-71
2022/07/18 06:41:20;;;;;;;2.53;2.33;;;21.10;26.90;;;;;;10422879;27;20600;-68
2022/07/18 06:46:24;;;;;;;2.40;2.20;;;21.40;26.60;;;;;;10386323;28;20238;-69
2022/07/18 06:51:27;;;;;;;2.10;2.00;;;21.60;26.40;;;;;;10388677;28;20793;-69
2022/07/18 06:56:32;;;;;;;3.43;2.43;;;21.90;26.60;;;;;;10387326;28;20310;-69
2022/07/18 07:01:35;;;;;;;5.07;2.20;;;22.20;26.80;;;;;;10387089;28;20248;-68
2022/07/18 07:06:39;;;;;;;2.30;2.10;;;22.40;26.40;;;;;;10388336;28;20790;-72
2022/07/18 07:11:44;;;;;;;2.80;2.17;;;22.60;26.40;;;;;;10387245;28;20933;-71
2022/07/18 07:16:48;;;;;;;2.93;2.10;;;22.90;26.40;;;;;;10394497;28;20230;-72
2022/07/18 07:21:54;;;;;;;2.53;2.10;;;23.20;26.30;;;;;;10405717;28;20229;-72
2022/07/18 07:27:01;;;;;;;2.80;2.30;;;23.50;26.20;;;;;;10401099;28;20713;-71
2022/07/18 07:32:04;;;;;;;2.20;2.00;;;23.80;26.10;;;;;;10396002;28;20218;-71
2022/07/18 07:37:08;;;;;;;5.00;2.00;;;24.00;25.60;;;;;;10402587;28;20586;-72
2022/07/18 07:42:12;;;;;;;2.10;2.00;;;24.30;25.60;;;;;;10411572;28;20240;-72
2022/07/18 07:47:15;;;;;;;2.30;2.10;;;24.50;24.90;;;;;;10410064;28;20605;-73
2022/07/18 07:52:20;;;;;;;2.20;2.10;;;24.80;24.90;;;;;;10384724;28;20239;-71
2022/07/18 07:57:25;;;;;;;2.57;1.83;;;25.00;25.10;;;;;;10387877;28;20229;-72
2022/07/18 08:02:36;;;;;;;2.13;2.03;;;25.20;25.00;;;;;;10382740;28;20241;-72
2022/07/18 08:07:40;;;;;;;2.07;1.97;;;25.50;24.70;;;;;;10385925;28;20226;-73
2022/07/18 08:12:44;;;;;;;2.07;1.97;;;25.80;24.40;;;;;;10393985;28;20437;-71
2022/07/18 08:17:48;;;;;;;2.03;1.70;;;26.00;23.90;;;;;;10381174;28;20237;-72
2022/07/18 08:22:56;;;;;;;2.50;2.00;;;26.20;24.00;;;;;;10375592;28;20222;-73
2022/07/18 08:28:01;;;;;;;1.90;1.80;;;26.50;23.00;;;;;;10369563;28;20232;-71
2022/07/18 08:33:05;;;;;;;3.33;1.70;;;26.90;23.10;;;;;;10377074;28;20245;-71
2022/07/18 08:38:08;;;;;;;1.87;1.70;;;27.20;23.00;;;;;;10376028;28;20230;-71
2022/07/18 08:43:13;;;;;;;1.70;1.60;;;27.50;22.10;;;;;;10374983;28;20232;-71
2022/07/18 08:48:26;;;;;;;1.47;1.40;;;27.80;21.40;;;;;;10379563;28;20582;-72
2022/07/18 08:53:29;;;;;;;2.30;1.60;;;28.20;21.20;;;;;;10377707;28;20237;-72
2022/07/18 08:58:35;;;;;;;1.80;1.60;;;28.50;20.30;;;;;;10375732;28;20253;-71
2022/07/18 09:04:14;;;;;;;1.70;1.60;;;28.80;19.80;;;;;;10371910;28;20737;-72
2022/07/18 09:09:14;;;;;;;1.50;1.40;;;29.10;19.70;;;;;;10373826;28;20685;-73
2022/07/18 09:14:36;;;;;;;2.17;1.63;;;29.40;19.60;;;;;;10375679;28;20232;-73
2022/07/18 09:19:42;;;;;;;1.60;1.50;;;29.70;19.20;;;;;;10375744;28;20249;-71
2022/07/18 09:24:57;;;;;;;1.60;1.50;;;29.90;18.70;;;;;;10372002;28;21110;-72
2022/07/18 09:30:21;;;;;;;2.87;1.60;;;30.20;17.60;;;;;;10379465;28;20364;-71
2022/07/18 09:35:27;;;;;;;1.60;1.50;;;30.40;17.60;;;;;;10367148;28;20226;-72
2022/07/18 09:40:33;;;;;;;2.90;1.70;;;30.70;17.00;;;;;;10363023;28;20238;-73
2022/07/18 09:45:41;;;;;;;1.50;1.40;;;31.00;16.80;;;;;;10359815;28;20709;-71
2022/07/18 09:50:51;;;;;;;1.70;1.60;;;31.10;15.80;;;;;;10372544;28;20236;-71
2022/07/18 09:55:56;;;;;;;1.87;1.60;;;31.30;15.60;;;;;;10382373;28;20713;-71
2022/07/18 10:01:02;;;;;;;2.27;1.70;;;31.40;16.50;;;;;;10376721;28;20247;-71
2022/07/18 10:06:06;;;;;;;3.63;1.70;;;31.50;15.20;;;;;;10375787;28;20227;-72
2022/07/18 10:11:09;;;;;;;1.50;1.40;;;31.50;15.60;;;;;;10376954;28;20235;-71
2022/07/18 10:16:14;;;;;;;2.70;1.83;;;31.60;15.40;;;;;;10357535;28;20238;-72
2022/07/18 10:21:22;;;;;;;1.80;1.50;;;31.70;14.80;;;;;;10373054;28;20288;-71
2022/07/18 10:26:27;;;;;;;2.27;1.70;;;31.80;14.40;;;;;;10382982;28;20268;-72
2022/07/18 10:31:33;;;;;;;1.80;1.70;;;32.00;14.10;;;;;;10379014;28;20791;-71
2022/07/18 10:36:39;;;;;;;1.70;1.60;;;32.10;13.90;;;;;;10370987;28;20235;-71
2022/07/18 10:42:13;;;;;;;1.60;1.50;;;32.20;14.50;;;;;;10390415;28;20259;-72
2022/07/18 10:47:20;;;;;;;1.77;1.67;;;32.30;14.20;;;;;;10383258;28;20237;-71
2022/07/18 10:53:00;;;;;;;3.40;1.50;;;32.40;13.30;;;;;;10382074;28;20233;-72
2022/07/18 10:58:17;;;;;;;1.97;1.60;;;32.40;13.40;;;;;;10385492;28;20690;-72
2022/07/18 11:03:29;;;;;;;1.63;1.53;;;32.50;12.70;;;;;;10377630;28;20703;-73
2022/07/18 11:08:33;;;;;;;1.83;1.73;;;32.60;12.10;;;;;;10382169;28;20746;-72
2022/07/18 11:13:37;;;;;;;1.80;1.67;;;32.60;13.10;;;;;;10378221;28;20234;-72
2022/07/18 11:19:29;;;;;;;1.30;1.30;;;32.70;12.80;;;;;;10377030;28;20239;-70
2022/07/18 11:24:34;;;;;;;2.77;1.60;;;32.90;13.30;;;;;;10373579;28;20231;-70
2022/07/18 11:29:42;;;;;;;3.70;1.67;;;32.90;13.10;;;;;;10382984;28;20228;-71
2022/07/18 11:34:51;;;;;;;1.73;1.63;;;33.00;12.10;;;;;;10391874;28;20234;-72
2022/07/18 11:40:06;;;;;;;1.70;1.60;;;33.00;12.10;;;;;;10382629;28;20227;-72
2022/07/18 11:45:11;;;;;;;1.83;1.70;;;33.10;11.70;;;;;;10385911;28;20217;-71
2022/07/18 11:50:14;;;;;;;1.70;1.60;;;33.20;12.00;;;;;;10383423;28;20260;-71
2022/07/18 11:55:19;;;;;;;1.70;1.60;;;33.40;12.60;;;;;;10368619;28;20222;-72
2022/07/18 12:00:23;;;;;;;1.70;1.60;;;33.40;11.40;;;;;;10381716;28;20238;-71
2022/07/18 12:05:32;;;;;;;1.60;1.50;;;33.60;11.60;;;;;;10387428;28;20732;-72
2022/07/18 12:10:37;;;;;;;1.90;1.40;;;33.60;10.60;;;;;;10373836;28;20277;-71
2022/07/18 12:15:42;;;;;;;2.47;1.50;;;33.60;11.10;;;;;;10334200;28;20233;-74
2022/07/18 12:20:47;;;;;;;1.60;1.50;;;33.60;11.20;;;;;;10371619;28;20241;-73
2022/07/18 12:25:51;;;;;;;1.60;1.50;;;33.60;11.40;;;;;;10367555;28;20231;-73
2022/07/18 12:30:55;;;;;;;1.77;1.67;;;33.60;10.80;;;;;;10358203;28;20750;-72
2022/07/18 12:36:04;;;;;;;2.03;1.47;;;33.60;10.80;;;;;;10366709;28;20722;-71
2022/07/18 12:41:09;;;;;;;1.70;1.60;;;33.50;10.50;;;;;;10354612;28;20232;-71
2022/07/18 12:46:12;;;;;;;1.70;1.60;;;33.50;10.00;;;;;;10376139;28;20231;-72
2022/07/18 12:51:15;;;;;;;1.70;1.60;;;33.50;10.70;;;;;;10376904;28;20716;-71
2022/07/18 12:56:20;;;;;;;1.90;1.80;;;33.50;10.60;;;;;;10380899;28;20249;-73
2022/07/18 13:01:23;;;;;;;1.67;1.57;;;33.50;9.80;;;;;;10366391;28;20242;-71
2022/07/18 13:06:27;;;;;;;2.23;1.57;;;33.40;9.90;;;;;;10361752;28;20303;-71
2022/07/18 13:11:31;;;;;;;1.40;1.40;;;33.40;10.30;;;;;;10360518;28;20233;-72
2022/07/18 13:16:35;;;;;;;1.60;1.50;;;33.50;9.90;;;;;;10349875;28;20243;-72
2022/07/18 13:21:39;;;;;;;1.80;1.50;;;33.60;9.90;;;;;;10352087;28;20232;-73
2022/07/18 13:26:44;;;;;;;1.63;1.53;;;33.60;9.80;;;;;;10362932;28;20231;-72
2022/07/18 13:31:48;;;;;;;1.97;1.80;;;33.70;9.40;;;;;;10364501;28;20249;-72
2022/07/18 13:36:52;;;;;;;2.17;1.50;;;33.80;10.10;;;;;;10357885;28;20286;-72
2022/07/18 13:41:57;;;;;;;1.73;1.63;;;33.90;9.90;;;;;;10354235;28;20226;-72
2022/07/18 13:47:00;;;;;;;1.70;1.40;;;34.00;9.30;;;;;;10367725;28;20697;-72
2022/07/18 13:52:03;;;;;;;1.60;1.50;;;34.10;9.50;;;;;;10364414;28;20224;-72
2022/07/18 13:57:14;;;;;;;1.63;1.53;;;34.20;9.40;;;;;;10358077;28;21068;-73
2022/07/18 14:02:17;;;;;;;1.60;1.50;;;34.30;9.10;;;;;;10364523;28;20225;-73
2022/07/18 14:07:21;;;;;;;1.80;1.70;;;34.30;9.20;;;;;;10357350;28;20226;-72
2022/07/18 14:12:25;;;;;;;1.70;1.60;;;34.40;9.00;;;;;;10357393;28;20249;-72
2022/07/18 14:17:30;;;;;;;1.50;1.40;;;34.50;8.70;;;;;;10355046;28;20240;-73
2022/07/18 14:22:33;;;;;;;2.43;1.50;;;34.60;8.80;;;;;;10351690;28;20248;-72
2022/07/18 14:27:38;;;;;;;1.60;1.50;;;34.60;8.50;;;;;;10354075;28;20717;-73
2022/07/18 14:32:42;;;;;;;1.80;1.70;;;34.50;8.50;;;;;;10349809;28;20240;-73
2022/07/18 14:37:45;;;;;;;1.50;1.40;;;34.60;8.70;;;;;;10356099;28;20229;-72
2022/07/18 14:42:50;;;;;;;1.70;1.60;;;34.60;8.50;;;;;;10347906;28;20241;-73
2022/07/18 14:47:53;;;;;;;1.40;1.40;;;34.60;7.70;;;;;;10356061;28;20251;-74
2022/07/18 14:52:57;;;;;;;2.77;1.77;;;34.60;8.30;;;;;;10361239;28;20232;-72
2022/07/18 14:58:02;;;;;;;1.87;1.77;;;34.60;8.20;;;;;;10361309;28;20225;-73
2022/07/18 15:03:06;;;;;;;1.80;1.70;;;34.60;8.00;;;;;;10371074;28;20240;-73
2022/07/18 15:08:16;;;;;;;1.70;1.60;;;34.60;8.30;;;;;;10364226;28;20229;-73
2022/07/18 15:13:20;;;;;;;1.77;1.67;;;34.60;8.20;;;;;;10365800;28;20227;-72
2022/07/18 15:18:24;;;;;;;1.57;1.47;;;34.60;7.60;;;;;;10365524;28;20225;-72
2022/07/18 15:23:28;;;;;;;1.40;1.40;;;34.60;7.80;;;;;;10365416;28;20235;-73
2022/07/18 15:28:32;;;;;;;1.60;1.50;;;34.60;8.00;;;;;;10363718;28;20233;-73
2022/07/18 15:33:35;;;;;;;1.83;1.63;;;34.70;7.70;;;;;;10363936;28;20320;-72
2022/07/18 15:38:39;;;;;;;1.50;1.40;;;34.70;7.90;;;;;;10363419;28;20241;-73
2022/07/18 15:43:43;;;;;;;1.53;1.50;;;34.80;8.00;;;;;;10359149;28;20352;-72
2022/07/18 15:48:47;;;;;;;1.60;1.50;;;34.90;7.80;;;;;;10363076;28;20233;-73
2022/07/18 15:53:50;;;;;;;1.60;1.50;;;34.90;7.80;;;;;;10361838;28;20244;-72
2022/07/18 15:58:55;;;;;;;1.60;1.50;;;35.00;7.60;;;;;;10364128;28;20226;-72
2022/07/18 16:03:58;;;;;;;1.63;1.53;;;35.00;7.40;;;;;;10366764;28;20233;-72
2022/07/18 16:09:01;;;;;;;1.70;1.60;;;35.00;7.70;;;;;;10367282;28;20275;-72
2022/07/18 16:14:07;;;;;;;1.80;1.70;;;35.00;7.70;;;;;;10361373;28;20256;-72
2022/07/18 16:19:10;;;;;;;1.80;1.70;;;35.00;7.10;;;;;;10362560;28;20230;-72
2022/07/18 16:24:14;;;;;;;1.70;1.60;;;35.00;7.50;;;;;;10370822;28;20745;-72
2022/07/18 16:29:18;;;;;;;1.60;1.50;;;35.00;7.40;;;;;;10366164;28;20829;-71
2022/07/18 16:34:22;;;;;;;1.80;1.70;;;34.90;7.30;;;;;;10369058;28;20241;-72
2022/07/18 16:39:25;;;;;;;3.13;1.60;;;34.90;7.60;;;;;;10367578;28;20246;-72
2022/07/18 16:44:30;;;;;;;1.70;1.60;;;34.80;7.40;;;;;;10368281;28;20225;-72
2022/07/18 16:49:34;;;;;;;1.87;1.70;;;34.80;7.20;;;;;;10358280;28;20230;-72
2022/07/18 16:54:37;;;;;;;1.67;1.57;;;34.80;7.40;;;;;;10366404;28;20732;-72
2022/07/18 16:59:43;;;;;;;1.70;1.60;;;34.80;7.20;;;;;;10366699;28;20229;-72
2022/07/18 17:04:47;;;;;;;1.87;1.67;;;34.80;7.30;;;;;;10359094;28;20222;-72
2022/07/18 17:09:50;;;;;;;2.03;1.80;;;34.80;7.50;;;;;;10365677;28;20226;-72
2022/07/18 17:14:55;;;;;;;1.70;1.60;;;34.70;7.50;;;;;;10360435;28;20276;-72
2022/07/18 17:19:59;;;;;;;1.50;1.50;;;34.60;7.40;;;;;;10366928;28;20227;-71
2022/07/18 17:25:04;;;;;;;1.70;1.60;;;34.60;7.90;;;;;;10360883;28;20236;-73
2022/07/18 17:30:10;;;;;;;3.20;2.63;;;34.40;8.50;;;;;;10359877;28;20337;-71
2022/07/18 17:35:15;;;;;;;1.97;1.80;;;34.30;8.20;;;;;;10360064;28;20228;-72
2022/07/18 17:40:26;;;;;;;5.93;3.33;;;34.20;8.20;;;;;;10360222;28;20237;-72
2022/07/18 17:45:31;;;;;;;8.73;7.90;;;34.10;8.40;;;;;;10362397;28;20227;-71
2022/07/18 17:50:35;;;;;;;3.07;2.80;;;33.90;8.70;;;;;;10364403;28;20235;-71
2022/07/18 17:55:39;;;;;;;2.93;2.20;;;33.80;8.50;;;;;;10361745;28;20243;-72
2022/07/18 18:00:43;;;;;;;2.53;2.33;;;33.70;9.00;;;;;;10369382;28;20239;-71
2022/07/18 18:05:47;;;;;;;3.30;3.00;;;33.50;9.00;;;;;;10380077;22;20230;-68
2022/07/18 18:10:51;;;;;;;3.47;2.97;;;33.40;9.20;;;;;;10361305;28;20222;-68
2022/07/18 18:15:55;;;;;;;3.27;2.97;;;33.30;9.40;;;;;;10367744;28;20609;-68
2022/07/18 18:21:00;;;;;;;2.80;2.60;;;33.10;9.50;;;;;;10359573;28;20228;-68
2022/07/18 18:26:04;;;;;;;2.83;2.20;;;33.00;9.60;;;;;;10354979;28;20364;-68
2022/07/18 18:31:09;;;;;;;2.10;1.90;;;32.90;9.90;;;;;;10350974;28;20645;-68
2022/07/18 18:36:12;;;;;;;2.37;2.10;;;32.80;10.00;;;;;;10349354;28;20588;-68
2022/07/18 18:41:15;;;;;;;2.33;1.80;;;32.80;10.00;;;;;;10347718;28;20269;-68
2022/07/18 18:46:22;;;;;;;2.10;1.90;;;32.70;10.20;;;;;;10351840;28;20233;-68
2022/07/18 18:51:25;;;;;;;2.13;1.97;;;32.70;10.50;;;;;;10350541;28;20230;-68
2022/07/18 18:56:29;;;;;;;4.20;2.10;;;32.60;10.30;;;;;;10352410;28;20233;-68
2022/07/18 19:01:33;;;;;;;2.00;1.87;;;32.50;10.30;;;;;;10353356;28;22284;-68
2022/07/18 19:06:38;;;;;;;2.23;1.90;;;32.40;10.60;;;;;;10345594;28;20226;-68
2022/07/18 19:11:41;;;;;;;4.83;2.07;;;32.30;10.50;;;;;;10351598;28;20234;-68
2022/07/18 19:16:46;;;;;;;4.10;1.90;;;32.20;10.90;;;;;;10351858;28;20218;-68
2022/07/18 19:21:49;;;;;;;2.23;2.00;;;32.10;11.50;;;;;;10373610;23;20862;-71
2022/07/18 19:26:53;;;;;;;2.10;2.00;;;32.00;11.60;;;;;;10404728;28;20227;-71
2022/07/18 19:31:58;;;;;;;2.70;2.13;;;31.90;11.50;;;;;;10399371;28;20253;-72
2022/07/18 19:37:01;;;;;;;3.37;2.47;;;31.80;11.90;;;;;;10403469;28;21071;-72
2022/07/18 19:42:07;;;;;;;3.27;2.97;;;31.70;11.80;;;;;;10409377;28;20826;-72
2022/07/18 19:47:11;;;;;;;2.80;2.57;;;31.60;11.60;;;;;;10409459;28;20221;-72
2022/07/18 19:52:15;;;;;;;2.73;2.50;;;31.50;12.30;;;;;;10410273;28;20688;-72
2022/07/18 19:57:18;;;;;;;2.43;2.23;;;31.40;12.00;;;;;;10412286;28;20225;-72
2022/07/18 20:02:22;;;;;;;2.90;2.00;;;31.30;12.30;;;;;;10409000;28;20225;-72
2022/07/18 20:07:26;;;;;;;1.97;1.80;;;31.10;12.50;;;;;;10410667;28;20942;-72
2022/07/18 20:12:29;;;;;;;2.43;2.17;;;31.00;12.20;;;;;;10413249;28;20224;-72
2022/07/18 20:17:35;;;;;;;2.33;1.73;;;30.80;12.50;;;;;;10407784;28;20229;-72
2022/07/18 20:22:38;;;;;;;2.40;2.20;;;30.60;12.80;;;;;;10415623;28;20239;-72
2022/07/18 20:27:41;;;;;;;2.57;1.90;;;30.50;12.90;;;;;;10414908;28;20239;-72
2022/07/18 20:32:47;;;;;;;2.33;2.10;;;30.30;12.90;;;;;;10417583;28;20233;-72
2022/07/18 20:37:51;;;;;;;6.87;2.50;;;30.10;13.20;;;;;;10416452;28;20909;-71
2022/07/18 20:42:55;;;;;;;2.27;2.07;;;29.80;13.10;;;;;;10407954;28;20261;-72
2022/07/18 20:47:59;;;;;;;4.60;2.23;;;29.50;13.40;;;;;;10419082;28;20797;-72
2022/07/18 20:53:03;;;;;;;1.90;1.70;;;29.20;14.00;;;;;;10411961;28;20240;-72
2022/07/18 20:58:06;;;;;;;2.00;1.90;;;28.90;14.00;;;;;;10408724;28;20221;-72
2022/07/18 21:03:11;;;;;;;2.93;1.63;;;28.80;14.50;;;;;;10414802;28;20241;-72
2022/07/18 21:08:15;;;;;;;2.00;1.47;;;28.60;15.00;;;;;;10413932;28;20229;-72
2022/07/18 21:13:19;;;;;;;3.00;1.90;;;28.50;14.90;;;;;;10416135;28;20239;-72
2022/07/18 21:18:27;;;;;;;2.50;1.63;;;28.40;15.10;;;;;;10414767;28;20233;-72
2022/07/18 21:23:30;;;;;;;1.80;1.70;;;28.20;15.30;;;;;;10417805;28;20225;-73
2022/07/18 21:28:33;;;;;;;1.70;1.60;;;28.10;15.20;;;;;;10412637;28;20239;-73
2022/07/18 21:33:38;;;;;;;3.13;1.60;;;28.00;15.30;;;;;;10416182;28;20257;-72
2022/07/18 21:38:41;;;;;;;1.87;1.70;;;27.80;15.60;;;;;;10418294;28;20229;-72
2022/07/18 21:43:44;;;;;;;1.93;1.80;;;27.70;15.60;;;;;;10416838;28;20245;-73
2022/07/18 21:48:49;;;;;;;2.40;2.10;;;27.60;15.80;;;;;;10413415;28;20225;-72
2022/07/18 21:53:52;;;;;;;2.00;1.90;;;27.40;16.20;;;;;;10414573;28;20229;-72
2022/07/18 21:58:57;;;;;;;2.33;2.20;;;27.20;16.10;;;;;;10409436;28;20241;-72
2022/07/18 22:04:02;;;;;;;3.87;2.07;;;27.00;16.30;;;;;;10411421;28;20228;-72
2022/07/18 22:09:10;;;;;;;2.70;2.50;;;26.80;16.90;;;;;;10412538;28;20221;-72
2022/07/18 22:14:15;;;;;;;2.67;2.47;;;26.60;16.80;;;;;;10407655;28;20616;-72
2022/07/18 22:19:20;;;;;;;2.20;2.10;;;26.40;17.30;;;;;;10417329;28;20248;-72
2022/07/18 22:24:24;;;;;;;3.00;2.43;;;26.10;17.40;;;;;;10410298;28;21028;-72
2022/07/18 22:29:27;;;;;;;2.67;2.47;;;26.00;17.30;;;;;;10415435;28;20228;-72
2022/07/18 22:34:32;;;;;;;5.63;2.63;;;25.60;17.40;;;;;;10407132;28;20315;-72
2022/07/18 22:39:35;;;;;;;2.50;2.17;;;25.30;18.20;;;;;;10407190;28;20321;-72
2022/07/18 22:44:39;;;;;;;3.60;1.90;;;25.10;18.00;;;;;;10407905;28;20428;-73
2022/07/18 22:49:43;;;;;;;2.47;1.90;;;24.90;18.50;;;;;;10410842;28;20257;-72
2022/07/18 22:54:46;;;;;;;2.73;1.60;;;24.80;18.50;;;;;;10413196;28;20284;-72
2022/07/18 22:59:50;;;;;;;2.83;1.70;;;24.70;18.40;;;;;;10405882;28;21047;-72
2022/07/18 23:04:54;;;;;;;3.27;1.70;;;24.60;18.40;;;;;;10409555;28;20233;-73
2022/07/18 23:09:58;;;;;;;2.73;2.03;;;24.50;19.20;;;;;;10402960;28;20217;-73
2022/07/18 23:15:01;;;;;;;3.17;1.70;;;24.50;18.90;;;;;;10407666;28;20237;-72
2022/07/18 23:20:07;;;;;;;3.10;1.80;;;24.40;19.20;;;;;;10412366;28;20240;-72
2022/07/18 23:25:12;;;;;;;2.87;2.23;;;24.30;19.70;;;;;;10418124;28;20233;-72
2022/07/18 23:30:18;;;;;;;2.70;1.97;;;24.10;19.40;;;;;;10419400;28;20226;-72
2022/07/18 23:35:23;;;;;;;3.70;2.17;;;24.00;19.80;;;;;;10419053;28;20249;-72
2022/07/18 23:40:26;;;;;;;3.40;2.00;;;23.80;20.00;;;;;;10416643;28;20660;-72
2022/07/18 23:45:30;;;;;;;1.90;1.80;;;23.70;19.80;;;;;;10418000;28;20234;-72
2022/07/18 23:50:34;;;;;;;3.77;1.80;;;23.70;20.00;;;;;;10420811;28;20241;-72
2022/07/18 23:55:38;;;;;;;2.47;1.70;;;23.60;20.60;;;;;;10416560;28;20712;-72
